AirNav   Bose Proflight Series 2 Wireless Aviation Headset
 
 1444 users online  

78PA SAP America Heliport
Newtown Square, Pennsylvania, USA

GOING TO NEWTOWN SQUARE?


FAA INFORMATION EFFECTIVE 07 NOVEMBER 2019

Location

FAA Identifier: 78PA
Lat/Long: 39-59-13.3000N 075-24-57.4000W
39-59.221667N 075-24.956667W
39.9870278,-75.4159444
(estimated)
Elevation: 417 ft. / 127 m (estimated)
Time zone: UTC -5 (UTC -4 during Daylight Saving Time)
Zip code: 19073

Heliport Operations

Heliport use: Private use. Permission required prior to landing
Activation date: 02/2007
Control tower: no
ARTCC: NEW YORK CENTER
FSS: WILLIAMSPORT FLIGHT SERVICE STATION
Attendance: 0600-0000
Wind indicator: lighted
Segmented circle: no
Lights: FOR PERIMETER AND LEAD-IN LGTS CALL 610-661-3600.

Heliport Communications

WX AWOS-3T at OQN (8 nm W): 121.4 ((610) 692-6190)
WX ASOS at PHL (11 nm SE): PHONE 215-492-9617
WX AWOS-3 at LOM (11 nm NE): 118.925 (215-646-1068)
WX ASOS at PTW (16 nm NW): 119.425 (610-495-0823)
WX ASOS at PNE (19 nm E): PHONE 215-677-0146

Nearby radio navigation aids

VOR radial/distance  VOR name  Freq  Var
MXEr080/12.4MODENA VORTAC113.2009W
PTWr164/15.6POTTSTOWN VORTAC116.5009W
DQOr035/20.5DUPONT VORTAC114.0010W
OODr356/21.7WOODSTOWN VORTAC112.8010W
ARDr246/28.3YARDLEY VOR/DME108.2010W
VCNr332/34.0CEDAR LAKE VOR/DME115.2010W
GXUr280/37.7MC GUIRE VORTAC110.6012W
ETXr170/37.7EAST TEXAS VOR/DME110.2009W

 
NDB name  Hdg/Dist  Freq  Var  ID
AMBLER228/10.327512WING .. -. --.
RAINBOW350/36.536311WRNB .-. -. -...

Heliport Services

Runway Information

Helipad H1

Dimensions: 45 x 45 ft. / 14 x 14 m
Surface: concrete
Runway edge lights: PERI
ALSO LEAD-IN LGTS.
Traffic pattern: leftleft

Heliport Ownership and Management from official FAA records

Ownership: Privately-owned
Owner: SAP AMERICA INC.
3999 WEST CHESTER PIKE
NEWTOWN SQUARE, PA 19073
Phone 610-661-3600
Manager: JACOB DRUMHELLER
3999 WEST CHESTER PIKE
NEWTOWN SQUARE, PA 19073
Phone (610) 661-3313

Additional Remarks

THIS PVT HELIPORT RQRS WRITTEN APVL FOR ACES.
EMERGENCY SERVICE HELICOPTERS CONTACT MANAGER FOR ACCESS DETAILS PHONE 610-661-3600.
USE LICENSED APCH/DEP CORRIDORS 020/200 DEGS AND 250/070 DEGS. CORRIDORS ALSO PROVIDE FOR NOISE ABATEMENT AND GOOD COMMUNITY RELATIONS. AVOID RESIDENTIAL AREAS AROUND FACILITY.
56 FT MAXIMUM ROTOR DIAMETER.
MAX GROSS WEIGHT IS 30,000 LBS..
FOR CD CTC PHILADELPHIA APCH AT 800-354-9884.

Instrument Procedures

There are no published instrument procedures at 78PA.

Some nearby airports with instrument procedures:

KOQN - Brandywine Regional Airport (8 nm W)
KPHL - Philadelphia International Airport (11 nm SE)
KLOM - Wings Field Airport (11 nm NE)
N10 - Perkiomen Valley Airport (13 nm N)
7N7 - Spitfire Aerodrome (15 nm S)
KPTW - Heritage Field Airport (16 nm NW)
N57 - New Garden Airport (19 nm SW)
KPNE - Northeast Philadelphia Airport (19 nm E)
 
Loc | Ops | Rwys | IFR | FBO | Links
Com | Nav | Svcs | Stats | Notes
Area around 78PA (SAP America Heliport)
 
Road maps at: MapQuest Bing Google
 
Aerial photo
WARNING: Photo may not be current or correct
Aerial photo of 78PA (SAP America Heliport)
Photo taken 05-Jun-2012
looking east.

Do you have a better or more recent aerial photo of SAP America Heliport that you would like to share? If so, please send us your photo.

 
Sectional chart

 
Airport distance calculator
Flying to SAP America Heliport? Find the distance to fly.

From to 78PA

Sunrise and sunset
Times for 12-Nov-2019
 Local
(UTC-5)
 Zulu
(UTC)
Morning civil twilight06:1611:16
Sunrise06:4411:44
Sunset16:4721:47
Evening civil twilight17:1622:16

Current date and time
Zulu (UTC)  12-Nov-2019 16:18:57
Local (UTC-5)  12-Nov-2019 11:18:57
 
METAR
KOQN 
8nm W 
121555Z AUTO 31013G21KT 268V328 10SM 02/M02 A2995 RMK AO2
KPHL 
11nm SE 
121554Z 34012G21KT 10SM -RA OVC019 03/M01 A2995 RMK AO2 PK WND 30026/1522 SLP142 P0001 T00281011
KLOM 
11nm NE 
121555Z AUTO 33010G19KT 300V360 10SM OVC060 02/M03 A2995 RMK AO2 T00161033
KPTW 
16nm NW 
121554Z AUTO 31011KT 6SM -SN OVC022 01/M02 A2996 RMK AO2 SNB35 SLP145 P0000 T00061022 $
KPNE 
19nm E 
121554Z 31016G21KT 10SM FEW025 OVC060 04/M02 A2995 RMK AO2 SLP143 T00391022 $
TAF
KPHL 
11nm SE 
121309Z 1213/1318 31013G24KT 6SM -RA BR BKN025 OVC060 TEMPO 1213/1215 5SM -RA OVC020 FM121500 32016G26KT P6SM OVC050 FM122100 33018G28KT P6SM SCT150 FM130200 33015G23KT P6SM SKC FM130800 33012KT P6SM SKC
KPNE 
19nm E 
121336Z 1214/1312 31012G20KT P6SM -RA BKN020 OVC040 FM121500 32014G22KT P6SM OVC070 FM121900 33016G26KT P6SM SCT150 FM130200 33014KT P6SM SKC FM130800 32009KT P6SM SKC
NOTAMs
Click for the latest NOTAMs
NOTAMs are issued by the DoD/FAA and will open in a separate window not controlled by AirNav.

 

 
 

Would you like to see your business listed on this page?

 If your business provides an interesting product or service to pilots, flight crews, aircraft, or users of the SAP America Heliport, you should consider listing it here.  To start the listing process, click on the button below
 
Add a business
 

Other Pages about SAP America Heliport

Update a link
 
Copyright © AirNav, LLC. All rights reserved. Privacy Policy  Contact